Time;durP1;ratioP1;P1;durP2;ratioP2;P2;SDS_P1;SDS_P2;PMS_P1;PMS_P2;Temp;Humidity;BMP_temperature;BMP_pressure;BME280_temperature;BME280_humidity;BME280_pressure;Samples;Min_cycle;Max_cycle;Signal;HPM_P1;HPM_P2
2022/04/02 00:01:29;;;;;;;40.95;12.38;;;;;;;5.49;73.02;99186.56;6200052;22;20466;-76
2022/04/02 00:03:55;;;;;;;28.80;11.18;;;;;;;5.49;72.97;99187.44;6250891;22;20027;-76
2022/04/02 00:06:21;;;;;;;26.73;10.55;;;;;;;5.58;72.93;99186.84;6277268;22;20023;-77
2022/04/02 00:08:47;;;;;;;30.00;11.80;;;;;;;5.55;72.77;99202.94;6276897;22;20020;-77
2022/04/02 00:11:12;;;;;;;29.00;11.07;;;;;;;5.51;72.68;99180.22;6276149;22;20015;-76
2022/04/02 00:13:38;;;;;;;20.73;10.57;;;;;;;5.40;73.28;99203.03;6276359;22;20026;-76
2022/04/02 00:16:05;;;;;;;32.10;9.95;;;;;;;5.43;73.21;99208.16;6249327;22;20022;-76
2022/04/02 00:18:31;;;;;;;22.17;8.40;;;;;;;5.45;73.14;99209.75;6198850;22;20016;-75
2022/04/02 00:20:58;;;;;;;28.58;9.85;;;;;;;5.39;73.08;99202.19;6276357;22;20363;-77
2022/04/02 00:23:39;;;;;;;22.98;8.52;;;;;;;5.52;73.24;99196.97;6276277;22;20020;-77
2022/04/02 00:26:20;;;;;;;22.63;8.88;;;;;;;5.54;72.81;99177.41;6224073;22;20026;-76
2022/04/02 00:28:48;;;;;;;38.58;8.57;;;;;;;5.71;72.62;99172.81;6224238;22;20097;-76
2022/04/02 00:31:15;;;;;;;25.83;8.45;;;;;;;5.76;72.39;99154.84;6275040;22;20103;-75
2022/04/02 00:33:44;;;;;;;22.95;9.55;;;;;;;5.73;72.34;99136.47;6248891;22;20015;-76
2022/04/02 00:36:10;;;;;;;19.77;8.70;;;;;;;5.75;72.31;99135.41;6276452;22;20029;-75
2022/04/02 00:38:37;;;;;;;22.58;8.15;;;;;;;5.86;71.92;99132.06;6276555;22;20061;-75
2022/04/02 00:41:03;;;;;;;24.23;9.00;;;;;;;5.84;72.03;99107.47;6251021;22;20020;-75
2022/04/02 00:43:32;;;;;;;24.05;9.82;;;;;;;5.91;71.62;99119.38;6251959;22;20019;-75
2022/04/02 00:46:04;;;;;;;24.13;9.18;;;;;;;5.97;71.40;99103.06;6226499;22;20447;-76
2022/04/02 00:48:30;;;;;;;29.90;8.52;;;;;;;6.03;70.88;99113.31;6234849;22;20026;-75
2022/04/02 00:50:58;;;;;;;30.30;9.02;;;;;;;5.99;70.83;99114.47;6302500;22;20028;-75
2022/04/02 00:53:30;;;;;;;21.10;8.57;;;;;;;5.96;71.07;99106.69;6277912;22;20024;-76
2022/04/02 00:55:56;;;;;;;24.75;9.13;;;;;;;5.95;70.79;99112.09;6301988;22;20016;-76
2022/04/02 00:58:22;;;;;;;21.17;8.60;;;;;;;5.86;70.76;99116.16;6278483;22;20022;-77
2022/04/02 01:00:49;;;;;;;24.33;7.78;;;;;;;5.90;71.06;99122.13;6277800;22;20015;-79
2022/04/02 01:03:18;;;;;;;25.23;7.85;;;;;;;5.90;71.29;99112.34;6276250;22;20407;-78
2022/04/02 01:05:48;;;;;;;19.23;7.47;;;;;;;5.87;71.08;99101.97;6250747;22;20024;-76
2022/04/02 01:08:15;;;;;;;32.70;7.68;;;;;;;5.89;71.18;99093.91;6276575;22;20022;-75
2022/04/02 01:10:42;;;;;;;19.70;6.97;;;;;;;5.86;71.07;99086.97;6276398;22;20020;-77
2022/04/02 01:13:09;;;;;;;18.05;7.68;;;;;;;5.93;71.14;99090.97;6275906;22;20023;-76
2022/04/02 01:15:38;;;;;;;23.52;6.68;;;;;;;5.95;70.79;99099.69;6250729;22;20483;-77
2022/04/02 01:18:08;;;;;;;15.07;7.20;;;;;;;5.93;70.83;99090.13;6301431;22;20384;-75
2022/04/02 01:20:37;;;;;;;16.40;7.00;;;;;;;5.75;70.72;99055.00;6276105;22;20463;-79
2022/04/02 01:23:03;;;;;;;13.25;6.63;;;;;;;5.91;70.80;99039.78;6276566;22;20015;-76
2022/04/02 01:25:35;;;;;;;12.95;6.22;;;;;;;5.98;70.63;99030.50;6276127;22;20329;-77
2022/04/02 01:28:07;;;;;;;17.02;6.03;;;;;;;5.95;70.84;99011.28;6250821;22;20417;-76
2022/04/02 01:30:34;;;;;;;17.00;6.38;;;;;;;6.03;70.61;99023.09;6277244;22;20074;-76
2022/04/02 01:33:00;;;;;;;16.48;6.47;;;;;;;6.06;69.99;99025.53;6277470;22;20070;-77
2022/04/02 01:35:28;;;;;;;29.27;7.18;;;;;;;5.99;70.38;99034.88;6275954;22;20022;-76
2022/04/02 01:38:09;;;;;;;17.23;6.93;;;;;;;6.00;70.68;99020.63;6276252;22;20043;-76
2022/04/02 01:40:35;;;;;;;24.02;6.55;;;;;;;6.05;70.63;99009.72;6276372;22;20075;-76
2022/04/02 01:43:02;;;;;;;18.48;5.70;;;;;;;6.11;70.46;99019.94;6275742;22;20359;-76
2022/04/02 01:45:28;;;;;;;16.08;6.65;;;;;;;6.06;70.18;99028.19;6301593;22;20057;-77
2022/04/02 01:47:58;;;;;;;21.92;5.85;;;;;;;6.08;70.32;99013.00;6301317;22;20077;-75
2022/04/02 01:50:37;;;;;;;;;;;;;;;6.08;70.26;99009.50;6302196;22;20343;-76
2022/04/02 01:53:03;;;;;;;15.30;6.20;;;;;;;6.04;70.67;99010.66;6250110;22;19915;-76
2022/04/02 01:55:29;;;;;;;22.88;6.18;;;;;;;5.97;70.95;99007.56;6277348;22;20470;-76
2022/04/02 01:58:03;;;;;;;17.60;6.05;;;;;;;5.99;70.89;99000.38;6301577;22;20090;-77
2022/04/02 02:00:36;;;;;;;17.98;6.43;;;;;;;5.98;70.58;98993.38;6276054;22;20016;-80
2022/04/02 02:03:02;;;;;;;21.70;6.97;;;;;;;5.97;70.80;98980.19;6301504;22;20347;-77
2022/04/02 02:05:28;;;;;;;24.77;7.10;;;;;;;5.86;71.23;98983.53;6301561;22;20453;-77
2022/04/02 02:07:54;;;;;;;14.98;6.78;;;;;;;5.90;71.19;98995.63;6276184;22;20023;-77
2022/04/02 02:10:41;;;;;;;19.13;6.32;;;;;;;6.01;71.01;99001.09;6259879;22;20015;-77
2022/04/02 02:13:29;;;;;;;14.68;5.88;;;;;;;5.92;71.22;98991.13;6276743;22;20016;-77
2022/04/02 02:15:56;;;;;;;18.88;5.95;;;;;;;5.96;71.20;98997.91;6275273;22;20090;-76
2022/04/02 02:18:21;;;;;;;22.40;7.03;;;;;;;5.94;71.20;98999.84;6276892;22;20509;-76
2022/04/02 02:20:47;;;;;;;21.08;6.45;;;;;;;5.95;71.12;98988.25;6249867;22;20020;-77
2022/04/02 02:23:14;;;;;;;11.70;6.03;;;;;;;5.92;71.32;98987.59;6249949;22;20031;-77
2022/04/02 02:25:40;;;;;;;15.27;6.80;;;;;;;5.94;71.30;98994.53;6276956;22;20019;-78
2022/04/02 02:28:06;;;;;;;22.60;6.75;;;;;;;5.89;71.58;98982.47;6276602;22;20034;-77
2022/04/02 02:30:32;;;;;;;14.73;6.35;;;;;;;5.91;71.52;98981.44;6276661;22;20439;-77
2022/04/02 02:35:51;;;;;;;12.63;5.90;;;;;;;5.79;71.54;98955.69;6275732;22;20023;-77
2022/04/02 02:38:24;;;;;;;15.57;6.00;;;;;;;5.72;71.99;98963.25;6274949;22;20023;-77
2022/04/02 02:41:07;;;;;;;24.52;7.55;;;;;;;5.83;71.79;98962.53;6249679;22;20016;-78
2022/04/02 02:43:37;;;;;;;17.75;6.05;;;;;;;5.86;71.75;98970.25;6275518;22;20027;-77
2022/04/02 02:46:14;;;;;;;17.10;6.30;;;;;;;5.87;71.39;98979.94;6250339;22;20473;-76
2022/04/02 02:48:41;;;;;;;14.98;6.38;;;;;;;5.88;71.64;98980.78;6249522;22;20451;-77
2022/04/02 02:51:07;;;;;;;18.48;6.47;;;;;;;6.02;71.47;98984.25;6275191;22;20023;-77
2022/04/02 02:53:33;;;;;;;15.45;6.47;;;;;;;6.10;71.07;98969.63;6275406;22;20043;-76
2022/04/02 02:55:59;;;;;;;17.08;7.18;;;;;;;6.16;70.76;98959.41;6300713;22;20487;-77
2022/04/02 02:58:25;;;;;;;16.20;6.65;;;;;;;6.13;70.57;98964.09;6276599;22;20098;-76
2022/04/02 03:00:51;;;;;;;14.65;6.25;;;;;;;6.12;70.73;98951.78;6250171;22;20019;-78
2022/04/02 03:03:24;;;;;;;15.25;6.45;;;;;;;6.20;70.75;98952.09;6249608;22;20046;-77
2022/04/02 03:05:52;;;;;;;12.98;6.43;;;;;;;6.33;70.60;98961.78;6301116;22;20141;-75
2022/04/02 03:08:19;;;;;;;20.92;6.85;;;;;;;6.28;70.48;98968.34;6249175;22;20085;-76
2022/04/02 03:10:54;;;;;;;21.25;7.28;;;;;;;6.33;70.16;98961.78;6274889;22;20053;-77
2022/04/02 03:13:25;;;;;;;15.73;7.05;;;;;;;6.23;70.16;98949.25;6311659;22;20020;-77
2022/04/02 03:15:58;;;;;;;18.25;7.60;;;;;;;6.13;70.53;98942.84;6296500;22;20037;-77
2022/04/02 03:18:24;;;;;;;20.55;8.10;;;;;;;6.04;70.87;98945.19;6284129;22;20015;-77
2022/04/02 03:20:50;;;;;;;21.98;8.15;;;;;;;6.11;70.88;98948.28;6301265;22;20026;-76
2022/04/02 03:23:24;;;;;;;23.85;9.35;;;;;;;6.28;70.56;98949.75;6275311;22;20023;-75
2022/04/02 03:25:50;;;;;;;21.23;9.55;;;;;;;6.42;70.21;98933.75;6275222;22;20026;-76
2022/04/02 03:28:17;;;;;;;26.20;9.95;;;;;;;6.40;69.91;98909.13;6275353;22;20023;-74
2022/04/02 03:30:44;;;;;;;25.73;8.75;;;;;;;6.40;69.67;98909.13;6276930;22;20428;-76
2022/04/02 03:33:11;;;;;;;21.63;9.77;;;;;;;6.33;69.89;98892.75;6249325;22;20015;-77
2022/04/02 03:35:37;;;;;;;26.17;9.57;;;;;;;6.36;70.00;98886.41;6275080;22;20015;-77
2022/04/02 03:38:04;;;;;;;21.30;9.98;;;;;;;6.32;69.88;98884.91;6300743;22;20047;-76
2022/04/02 03:40:30;;;;;;;16.75;10.00;;;;;;;6.26;69.78;98886.19;6276940;22;20016;-77
2022/04/02 03:42:57;;;;;;;21.67;9.35;;;;;;;6.13;70.27;98884.47;6275000;22;20344;-77
2022/04/02 03:45:33;;;;;;;17.33;9.57;;;;;;;6.09;70.83;98883.84;6274587;22;20026;-77
2022/04/02 03:48:00;;;;;;;23.95;9.10;;;;;;;6.05;70.91;98883.19;6274724;22;20020;-77
2022/04/02 03:50:28;;;;;;;20.23;8.87;;;;;;;6.13;70.94;98880.03;6274904;22;20352;-77
2022/04/02 03:52:57;;;;;;;25.65;9.40;;;;;;;6.25;70.73;98862.41;6274406;22;20342;-80
2022/04/02 03:55:32;;;;;;;20.17;8.57;;;;;;;6.35;70.37;98863.44;6249408;22;20026;-77
2022/04/02 03:58:01;;;;;;;22.08;8.93;;;;;;;6.45;70.01;98859.19;6300414;22;20047;-76
2022/04/02 04:00:28;;;;;;;21.08;8.55;;;;;;;6.49;70.08;98844.75;6274847;22;20012;-79
2022/04/02 04:03:05;;;;;;;23.42;8.45;;;;;;;6.54;69.43;98853.25;6274899;22;20027;-77
2022/04/02 04:05:37;;;;;;;14.35;6.97;;;;;;;6.50;69.03;98875.63;6249264;22;20019;-77
2022/04/02 04:08:04;;;;;;;17.10;7.78;;;;;;;6.57;68.99;98889.34;6249413;22;20051;-76
2022/04/02 04:10:32;;;;;;;18.38;6.65;;;;;;;6.55;69.06;98883.28;6249830;22;20023;-77
2022/04/02 04:12:58;;;;;;;15.63;6.82;;;;;;;6.66;68.92;98887.84;6275304;22;20012;-79
2022/04/02 04:15:28;;;;;;;15.05;6.40;;;;;;;6.74;68.34;98907.59;6250819;22;20023;-79
2022/04/02 04:17:57;;;;;;;14.98;6.82;;;;;;;6.72;68.40;98877.63;6276127;22;20023;-80
2022/04/02 04:20:23;;;;;;;18.08;6.13;;;;;;;7.45;72.76;98892.69;6251312;22;20016;-79
2022/04/02 04:22:49;;;;;;;16.67;6.57;;;;;;;7.63;69.15;98900.22;6279087;22;20089;-77
2022/04/02 04:25:17;;;;;;;10.07;6.07;;;;;;;7.68;66.32;98895.44;6276497;22;20050;-77
2022/04/02 04:27:45;;;;;;;17.75;7.13;;;;;;;7.59;65.54;98893.44;6302510;22;20412;-77
2022/04/02 04:30:14;;;;;;;18.95;7.50;;;;;;;7.60;64.96;98905.75;6276631;22;20388;-78
2022/04/02 04:32:41;;;;;;;18.95;7.90;;;;;;;7.58;65.28;98923.66;6278366;22;20012;-82
2022/04/02 04:35:08;;;;;;;16.75;8.38;;;;;;;7.36;65.14;98935.88;6278507;22;20481;-77
2022/04/02 04:37:37;;;;;;;22.80;9.07;;;;;;;7.29;65.49;98935.47;6276570;22;20019;-79
2022/04/02 04:40:12;;;;;;;25.55;10.27;;;;;;;7.43;65.50;98929.16;6302649;22;20016;-75
2022/04/02 04:42:40;;;;;;;18.95;10.52;;;;;;;7.58;65.28;98948.44;6226155;22;20042;-78
2022/04/02 04:45:09;;;;;;;29.15;10.48;;;;;;;7.72;65.05;98950.09;6226092;22;20019;-78
2022/04/02 04:47:36;;;;;;;25.42;9.90;;;;;;;7.90;64.52;98950.50;6276157;22;20015;-84
2022/04/02 04:50:03;;;;;;;19.00;9.20;;;;;;;8.02;64.58;98950.44;6225980;22;20094;-80
2022/04/02 04:52:32;;;;;;;17.10;8.73;;;;;;;8.37;64.34;98949.59;6250551;22;20470;-76
2022/04/02 04:55:01;;;;;;;18.88;7.80;;;;;;;8.54;62.41;98948.31;6250550;22;20031;-80
2022/04/02 04:57:29;;;;;;;15.63;7.35;;;;;;;8.74;61.96;98941.41;6226222;22;20023;-84
2022/04/02 05:00:05;;;;;;;11.38;6.95;;;;;;;9.00;63.37;98931.34;6203751;22;20020;-81
2022/04/02 05:02:32;;;;;;;16.02;7.20;;;;;;;9.45;64.44;98916.09;6252059;22;20015;-82
2022/04/02 05:05:00;;;;;;;16.92;7.10;;;;;;;10.05;64.06;98903.09;6226855;22;20023;-82
2022/04/02 05:07:29;;;;;;;14.00;7.05;;;;;;;10.20;60.81;98900.94;6229650;22;20019;-93
2022/04/02 05:09:57;;;;;;;17.80;7.30;;;;;;;10.31;60.45;98908.91;6251247;22;20031;-81
2022/04/02 05:12:24;;;;;;;19.10;7.47;;;;;;;10.56;57.87;98901.44;6200000;22;20016;-79
2022/04/02 05:14:51;;;;;;;20.92;6.55;;;;;;;10.44;56.49;98898.00;6250750;22;20070;-77
2022/04/02 05:17:21;;;;;;;15.18;6.75;;;;;;;10.07;56.36;98905.59;6250901;22;20023;-79
2022/04/02 05:19:48;;;;;;;16.33;5.22;;;;;;;10.12;56.01;98903.41;6250808;22;20548;-77
2022/04/02 05:22:15;;;;;;;15.05;6.43;;;;;;;10.28;56.57;98914.50;6253285;22;20401;-80
2022/04/02 05:24:48;;;;;;;28.38;5.60;;;;;;;10.33;55.72;98916.78;6208733;22;20015;-79
2022/04/02 05:27:15;;;;;;;19.63;6.05;;;;;;;10.38;55.20;98904.72;6259016;22;20030;-80
2022/04/02 05:29:42;;;;;;;19.25;5.93;;;;;;;10.30;55.52;98896.50;6281316;22;20024;-81
2022/04/02 05:32:07;;;;;;;16.20;6.10;;;;;;;10.05;55.65;98896.91;6276608;22;20080;-79
2022/04/02 05:34:33;;;;;;;23.80;6.05;;;;;;;9.94;56.05;98890.63;6225355;22;20023;-80
2022/04/02 05:36:59;;;;;;;18.05;5.25;;;;;;;9.87;56.03;98883.28;6200201;22;20022;-79
2022/04/02 05:39:25;;;;;;;22.15;6.38;;;;;;;9.84;55.86;98905.72;6225441;22;20352;-82
2022/04/02 05:41:51;;;;;;;19.40;6.13;;;;;;;9.59;55.86;98892.72;6250669;22;20016;-80
2022/04/02 05:44:17;;;;;;;16.48;6.00;;;;;;;9.50;55.68;98899.69;6250476;22;20027;-79
2022/04/02 05:46:44;;;;;;;16.35;6.25;;;;;;;9.44;56.11;98898.38;6250592;22;20043;-82
2022/04/02 05:49:11;;;;;;;17.27;5.70;;;;;;;9.41;56.07;98889.78;6267002;22;20016;-79
2022/04/02 05:51:38;;;;;;;15.27;5.95;;;;;;;9.44;55.92;98870.84;6250082;22;20054;-78
2022/04/02 05:54:04;;;;;;;15.65;5.75;;;;;;;9.48;55.97;98865.16;6274970;22;20016;-79
2022/04/02 05:56:30;;;;;;;20.38;5.85;;;;;;;9.45;55.71;98878.72;6250006;22;20012;-78
2022/04/02 05:58:57;;;;;;;23.20;6.93;;;;;;;9.12;56.18;98897.50;6275790;22;20026;-80
2022/04/02 06:01:23;;;;;;;20.63;6.13;;;;;;;9.06;56.44;98860.66;6277377;22;20012;-76
2022/04/02 06:03:48;;;;;;;11.95;5.78;;;;;;;9.03;56.01;98893.78;6277100;22;20097;-83
2022/04/02 06:06:14;;;;;;;11.90;5.80;;;;;;;8.92;56.59;98859.97;6250324;22;20030;-78
2022/04/02 06:08:40;;;;;;;11.38;5.95;;;;;;;8.81;56.80;98878.66;6277172;22;20477;-78
2022/04/02 06:11:06;;;;;;;19.08;5.55;;;;;;;8.71;56.80;98883.84;6250251;22;20020;-78
2022/04/02 06:13:33;;;;;;;21.13;6.13;;;;;;;8.52;57.44;98889.78;6301530;22;20012;-79
2022/04/02 06:15:59;;;;;;;14.40;5.65;;;;;;;8.50;57.57;98867.78;6200462;22;20027;-77
2022/04/02 06:18:25;;;;;;;18.25;6.68;;;;;;;8.40;57.67;98856.13;6277155;22;20023;-80
2022/04/02 06:20:51;;;;;;;17.20;5.70;;;;;;;8.17;58.19;98857.06;6301500;22;20019;-79
2022/04/02 06:23:18;;;;;;;22.08;5.78;;;;;;;8.35;58.28;98887.59;6276009;22;20015;-80
2022/04/02 06:25:44;;;;;;;18.85;5.18;;;;;;;8.41;57.64;98911.09;6301711;22;20047;-78
2022/04/02 06:28:11;;;;;;;16.25;5.50;;;;;;;8.44;57.27;98926.84;6249982;22;20101;-80
2022/04/02 06:30:37;;;;;;;16.85;5.05;;;;;;;8.31;56.91;98923.38;6277260;22;20027;-81
2022/04/02 06:33:04;;;;;;;14.20;5.93;;;;;;;8.32;57.64;98950.91;6249741;22;20046;-80
2022/04/02 06:35:31;;;;;;;23.85;5.85;;;;;;;8.52;57.55;98964.38;6301312;22;20162;-80
2022/04/02 06:37:57;;;;;;;20.30;5.07;;;;;;;8.57;56.75;98942.69;6274941;22;20138;-80
2022/04/02 06:40:25;;;;;;;16.00;6.75;;;;;;;8.67;56.57;98908.22;6300776;22;20439;-83
2022/04/02 06:42:51;;;;;;;17.40;5.75;;;;;;;8.96;56.35;98927.22;6249799;22;20069;-80
2022/04/02 06:45:37;;;;;;;18.10;5.85;;;;;;;9.02;55.26;98928.53;6276280;22;20027;-79
2022/04/02 06:48:04;;;;;;;18.42;5.70;;;;;;;9.09;55.52;98887.91;6275343;22;20026;-80
2022/04/02 06:50:30;;;;;;;13.98;6.28;;;;;;;9.23;55.44;98892.13;6250830;22;20081;-80
2022/04/02 06:52:56;;;;;;;19.23;5.60;;;;;;;9.30;55.01;98914.66;6303418;22;20023;-81
2022/04/02 06:55:22;;;;;;;11.32;4.93;;;;;;;9.35;56.94;98901.78;6281124;22;20019;-81
2022/04/02 06:57:57;;;;;;;22.77;5.22;;;;;;;9.22;54.12;98888.63;6308680;22;20030;-85
2022/04/02 07:00:24;;;;;;;22.38;5.43;;;;;;;9.08;54.65;98894.22;6303582;22;20019;-77
2022/04/02 07:02:50;;;;;;;19.02;5.25;;;;;;;8.88;54.93;98866.53;6279007;22;20058;-85
2022/04/02 07:05:18;;;;;;;26.65;5.63;;;;;;;9.00;55.20;98862.88;6250574;22;20098;-82
2022/04/02 07:07:45;;;;;;;18.17;5.43;;;;;;;8.87;55.02;98888.78;6306315;22;20479;-82
2022/04/02 07:10:13;;;;;;;19.67;5.90;;;;;;;8.74;55.83;98867.63;6277021;22;20402;-81
2022/04/02 07:12:39;;;;;;;21.88;5.88;;;;;;;8.98;55.29;98870.13;6275195;22;20038;-80
2022/04/02 07:15:07;;;;;;;23.58;6.10;;;;;;;9.17;54.89;98858.81;6276705;22;20012;-83
2022/04/02 07:17:34;;;;;;;25.67;6.18;;;;;;;9.29;54.64;98877.44;6249591;22;20043;-82
2022/04/02 07:20:03;;;;;;;19.48;5.55;;;;;;;9.13;54.13;98893.84;6302808;22;20045;-84
2022/04/02 07:22:29;;;;;;;25.08;5.45;;;;;;;9.03;54.45;98914.22;6275186;22;20019;-82
2022/04/02 07:24:56;;;;;;;14.90;4.60;;;;;;;8.73;54.52;98915.72;6276903;22;20026;-84
2022/04/02 07:27:25;;;;;;;19.15;5.63;;;;;;;8.66;55.17;98906.53;6275208;22;20474;-83
2022/04/02 07:29:58;;;;;;;16.50;4.97;;;;;;;8.54;55.32;98876.38;6274546;22;20022;-83
2022/04/02 07:32:24;;;;;;;14.00;4.47;;;;;;;8.39;55.56;98891.75;6276643;22;20474;-85
2022/04/02 07:34:50;;;;;;;20.80;4.50;;;;;;;8.17;56.00;98881.03;6276769;22;20064;-82
2022/04/02 07:37:32;;;;;;;23.05;4.70;;;;;;;8.17;56.16;98884.53;6249849;22;20118;-86
2022/04/02 07:40:07;;;;;;;20.77;4.57;;;;;;;8.12;56.63;98885.84;6275228;22;20019;-85
2022/04/02 07:43:04;;;;;;;13.27;4.47;;;;;;;8.09;56.49;98892.28;6249547;22;20452;-83
2022/04/02 07:45:41;;;;;;;15.25;4.68;;;;;;;8.01;56.55;98895.53;6250700;22;20023;-81
2022/04/02 07:48:11;;;;;;;20.20;4.50;;;;;;;7.85;57.17;98897.63;6252101;22;20507;-82
2022/04/02 07:50:45;;;;;;;27.23;5.30;;;;;;;7.78;57.17;98899.06;6275264;22;20106;-84
2022/04/02 07:53:23;;;;;;;16.42;4.63;;;;;;;7.55;57.70;98875.03;6250158;22;20047;-83
2022/04/02 07:55:53;;;;;;;12.70;4.43;;;;;;;7.44;57.98;98868.84;6278570;22;20358;-84
2022/04/02 07:58:26;;;;;;;16.05;4.60;;;;;;;7.32;58.52;98859.97;6251069;22;20016;-81
2022/04/02 08:00:56;;;;;;;14.38;4.95;;;;;;;7.28;58.60;98869.97;6277026;22;20030;-82
2022/04/02 08:03:28;;;;;;;15.00;4.90;;;;;;;7.29;58.55;98886.78;6250444;22;20359;-79
2022/04/02 08:05:55;;;;;;;22.77;5.03;;;;;;;7.36;58.46;98853.47;6277379;22;20024;-82
2022/04/02 08:08:27;;;;;;;16.10;6.68;;;;;;;7.37;58.40;98863.16;6249648;22;20249;-81
2022/04/02 08:10:54;;;;;;;15.73;5.55;;;;;;;7.31;58.24;98874.22;6250107;22;20490;-80
2022/04/02 08:13:22;;;;;;;17.60;5.05;;;;;;;7.37;58.24;98870.25;6303064;22;20102;-81
2022/04/02 08:15:54;;;;;;;8.98;4.20;;;;;;;7.35;58.25;98872.19;6275035;22;20043;-80
2022/04/02 08:18:26;;;;;;;29.02;5.35;;;;;;;7.36;58.50;98882.69;6275118;22;20347;-80
2022/04/02 08:20:52;;;;;;;18.15;4.47;;;;;;;7.25;58.38;98862.22;6276121;22;20022;-81
2022/04/02 08:23:23;;;;;;;16.52;4.82;;;;;;;7.36;58.55;98879.19;6275292;22;20523;-80
2022/04/02 08:26:07;;;;;;;12.02;5.00;;;;;;;7.21;58.75;98878.53;6276149;22;20044;-78
2022/04/02 08:28:56;;;;;;;11.27;3.80;;;;;;;7.23;58.60;98887.25;6274730;22;20066;-82
2022/04/02 08:31:22;;;;;;;8.98;4.20;;;;;;;7.20;58.64;98860.88;6240674;22;20355;-80
2022/04/02 08:33:57;;;;;;;18.70;4.60;;;;;;;7.33;58.36;98876.75;6302108;22;20016;-81
2022/04/02 08:36:30;;;;;;;13.05;4.28;;;;;;;7.30;58.36;98869.88;6275399;22;20016;-81
2022/04/02 08:39:08;;;;;;;16.42;5.00;;;;;;;7.31;58.24;98852.97;6301356;22;20043;-80
2022/04/02 08:42:23;;;;;;;16.88;5.30;;;;;;;7.37;58.74;98849.84;6250987;22;20436;-78
2022/04/02 08:45:05;;;;;;;10.48;4.28;;;;;;;7.51;58.15;98864.75;6250841;22;20519;-80
2022/04/02 08:47:55;;;;;;;20.90;4.75;;;;;;;7.46;58.35;98857.13;6276224;22;20019;-80
2022/04/02 08:50:29;;;;;;;13.90;4.50;;;;;;;7.44;58.12;98858.19;6235938;22;20020;-82
2022/04/02 08:53:00;;;;;;;23.95;5.45;;;;;;;7.56;58.24;98851.97;6243218;22;20015;-84
2022/04/02 08:56:03;;;;;;;18.33;5.60;;;;;;;7.70;57.61;98822.50;6243700;22;20041;-81
2022/04/02 08:58:37;;;;;;;25.73;5.75;;;;;;;7.75;57.36;98825.66;6260665;22;20070;-82
2022/04/02 09:01:07;;;;;;;21.20;5.15;;;;;;;7.75;57.33;98827.50;6290482;22;20020;-81
2022/04/02 09:03:32;;;;;;;;;;;;;;;7.68;57.55;98818.28;6203154;22;20157;-82
2022/04/02 09:06:20;;;;;;;20.20;5.78;;;;;;;7.69;57.44;98810.16;6226182;22;20293;-81
2022/04/02 09:09:15;;;;;;;24.73;5.28;;;;;;;7.71;57.29;98815.34;6251579;22;20440;-80
2022/04/02 09:12:07;;;;;;;14.80;5.03;;;;;;;7.69;57.71;98828.78;6251487;22;20114;-79
2022/04/02 09:14:32;;;;;;;21.02;4.80;;;;;;;7.70;57.55;98832.28;6278900;22;20435;-81
2022/04/02 09:17:19;;;;;;;14.40;4.45;;;;;;;7.75;57.92;98862.06;6251229;22;20016;-80
2022/04/02 09:20:37;;;;;;;13.27;4.78;;;;;;;7.75;57.37;98873.56;6225448;22;20024;-83
2022/04/02 09:23:10;;;;;;;22.40;4.55;;;;;;;7.59;57.82;98873.00;6130566;23;20024;-80
2022/04/02 09:25:45;;;;;;;28.38;5.63;;;;;;;7.70;57.40;98899.66;6222716;22;20011;-81
2022/04/02 09:28:56;;;;;;;25.98;4.80;;;;;;;7.72;57.34;98904.88;6224953;22;20051;-80
2022/04/02 09:31:49;;;;;;;19.88;3.95;;;;;;;7.68;58.01;98898.09;6230303;22;20061;-80
2022/04/02 09:34:46;;;;;;;16.17;4.32;;;;;;;7.63;57.63;98895.75;6224737;22;20018;-79
2022/04/02 09:37:37;;;;;;;12.18;4.55;;;;;;;7.61;58.01;98907.50;6227407;22;20027;-79
2022/04/02 09:40:11;;;;;;;21.40;4.43;;;;;;;7.60;57.96;98917.28;6249958;22;20020;-81
2022/04/02 09:42:50;;;;;;;27.60;4.85;;;;;;;7.65;58.01;98907.13;6250328;22;20540;-79
2022/04/02 09:45:27;;;;;;;17.35;5.53;;;;;;;7.78;57.92;98894.63;6200064;22;20016;-79
2022/04/02 09:48:15;;;;;;;18.02;4.07;;;;;;;7.85;57.55;98924.25;6250933;22;20022;-78
2022/04/02 09:50:43;;;;;;;19.08;4.85;;;;;;;7.76;57.62;98919.63;6277168;22;20022;-78
2022/04/02 09:53:34;;;;;;;34.95;5.43;;;;;;;7.83;57.80;98938.66;6250969;22;20016;-81
2022/04/02 09:56:28;;;;;;;17.70;4.90;;;;;;;7.92;57.71;98933.47;6224329;22;20030;-81
2022/04/02 09:59:07;;;;;;;21.40;5.57;;;;;;;8.12;57.33;98936.41;6249978;22;20348;-81
2022/04/02 10:01:48;;;;;;;22.17;4.70;;;;;;;8.24;56.82;98932.84;6276307;22;20023;-81
2022/04/02 10:04:32;;;;;;;23.25;5.53;;;;;;;8.39;56.35;98934.34;6224328;22;20047;-80
2022/04/02 10:07:03;;;;;;;16.75;5.00;;;;;;;8.54;56.30;98931.44;6275395;22;20020;-79
2022/04/02 10:09:33;;;;;;;16.60;5.50;;;;;;;8.40;56.05;98937.88;6274757;22;20015;-81
2022/04/02 10:12:01;;;;;;;16.52;5.30;;;;;;;8.41;56.34;98937.72;6276269;22;20066;-79
2022/04/02 10:14:30;;;;;;;22.92;5.22;;;;;;;8.58;55.87;98960.41;6276668;22;20015;-79
2022/04/02 10:17:09;;;;;;;26.80;5.00;;;;;;;8.47;55.64;98966.56;6274794;22;20019;-80
2022/04/02 10:19:37;;;;;;;32.70;5.32;;;;;;;8.54;58.03;98966.06;6274972;22;20243;-86
2022/04/02 10:22:12;;;;;;;27.50;5.32;;;;;;;8.84;56.16;98958.38;6250050;22;20058;-79
2022/04/02 10:24:47;;;;;;;26.13;6.53;;;;;;;8.72;55.04;98970.81;6277241;22;20033;-78
2022/04/02 10:27:36;;;;;;;22.25;4.70;;;;;;;8.69;55.18;98970.22;6277263;22;20015;-76
2022/04/02 10:30:09;;;;;;;27.90;5.80;;;;;;;8.78;55.54;98958.84;6250306;22;20022;-77
2022/04/02 10:32:44;;;;;;;21.77;5.25;;;;;;;8.77;55.00;98962.47;6275418;22;20027;-78
2022/04/02 10:35:11;;;;;;;27.10;6.47;;;;;;;8.60;55.02;98954.94;6274888;22;20016;-78
2022/04/02 10:37:43;;;;;;;22.42;5.07;;;;;;;8.36;55.65;98953.19;6274537;22;20027;-77
2022/04/02 10:40:16;;;;;;;19.10;5.07;;;;;;;8.39;55.82;98963.66;6248481;22;20428;-79
2022/04/02 10:42:51;;;;;;;18.67;5.20;;;;;;;8.22;55.70;98956.06;6248240;22;20074;-79
2022/04/02 10:45:21;;;;;;;16.38;5.65;;;;;;;7.89;56.90;98973.63;6275276;22;20024;-79
2022/04/02 10:47:49;;;;;;;20.80;5.57;;;;;;;7.91;57.09;98974.38;6249452;22;20020;-79
2022/04/02 10:50:22;;;;;;;25.50;5.70;;;;;;;7.77;57.40;98971.88;6277015;22;20019;-78
2022/04/02 10:52:49;;;;;;;25.33;5.55;;;;;;;7.87;57.54;98982.69;6224712;22;20030;-78
2022/04/02 10:55:19;;;;;;;22.23;4.97;;;;;;;7.70;57.77;98999.91;6276321;22;20043;-78
2022/04/02 10:57:46;;;;;;;22.75;5.80;;;;;;;7.87;57.73;99012.81;6276116;22;20125;-78
2022/04/02 11:00:13;;;;;;;22.20;5.63;;;;;;;7.85;57.45;99006.75;6276640;22;20020;-78
2022/04/02 11:02:42;;;;;;;21.35;7.18;;;;;;;7.87;57.75;99010.16;6223875;22;20077;-79
2022/04/02 11:05:16;;;;;;;20.92;6.13;;;;;;;7.68;58.23;98999.19;6199487;22;20063;-79
2022/04/02 11:07:45;;;;;;;27.48;7.22;;;;;;;7.57;58.99;98996.44;6199373;22;20481;-79
2022/04/02 11:10:16;;;;;;;19.73;6.45;;;;;;;7.54;59.09;99011.66;6198874;22;20054;-78
2022/04/02 11:12:44;;;;;;;30.95;6.78;;;;;;;7.53;59.50;99023.28;6276493;22;20023;-79
2022/04/02 11:15:10;;;;;;;18.65;6.80;;;;;;;7.55;59.30;99026.66;6223844;22;20102;-79
2022/04/02 11:17:41;;;;;;;23.15;6.45;;;;;;;7.36;60.29;99031.59;6276400;22;20104;-79
2022/04/02 11:20:22;;;;;;;29.00;6.88;;;;;;;7.29;60.48;99020.56;6249607;22;20015;-78
2022/04/02 11:22:51;;;;;;;22.35;6.55;;;;;;;7.03;61.52;99021.56;6249555;22;20011;-78
2022/04/02 11:25:24;;;;;;;24.30;7.45;;;;;;;7.15;61.43;99038.47;6249821;22;20115;-78
2022/04/02 11:27:54;;;;;;;24.67;7.60;;;;;;;7.06;61.87;99045.25;6249019;22;20016;-78
2022/04/02 11:30:21;;;;;;;26.08;8.00;;;;;;;7.00;62.54;99041.25;6249345;22;20035;-77
2022/04/02 11:32:51;;;;;;;29.45;8.45;;;;;;;6.92;62.95;99029.44;6198946;22;20103;-78
2022/04/02 11:35:21;;;;;;;25.55;8.38;;;;;;;6.93;62.96;99050.59;6224096;22;20026;-78
2022/04/02 11:38:09;;;;;;;30.58;8.48;;;;;;;6.91;63.28;99041.03;6224052;22;20019;-79
2022/04/02 11:40:42;;;;;;;19.40;7.97;;;;;;;6.81;63.61;99031.06;6276809;22;20015;-78
2022/04/02 11:43:09;;;;;;;33.30;8.00;;;;;;;6.84;63.81;99032.63;6276523;22;20016;-79
2022/04/02 11:45:37;;;;;;;33.40;9.85;;;;;;;6.88;64.04;99028.78;6249152;22;20019;-78
2022/04/02 11:48:11;;;;;;;30.75;9.10;;;;;;;6.90;63.70;99039.34;6276870;22;20015;-78
2022/04/02 11:50:43;;;;;;;25.65;7.55;;;;;;;6.81;64.38;99030.22;6276608;22;20020;-79
2022/04/02 11:53:10;;;;;;;22.63;6.90;;;;;;;6.64;64.57;99011.91;6249459;22;20110;-78
2022/04/02 11:55:38;;;;;;;33.85;7.32;;;;;;;6.72;64.71;99037.00;6198796;22;20092;-79